createdAt,value
2019-05-29T00:01:29.656Z,4.40
2019-05-29T00:03:56.907Z,4.50
2019-05-29T00:06:24.224Z,4.50
2019-05-29T00:08:51.573Z,4.50
2019-05-29T00:11:18.686Z,4.50
2019-05-29T00:13:46.019Z,4.60
2019-05-29T00:16:14.412Z,4.60
2019-05-29T00:18:41.834Z,4.60
2019-05-29T00:21:11.551Z,4.50
2019-05-29T00:23:38.213Z,4.40
2019-05-29T00:26:06.314Z,4.30
2019-05-29T00:28:33.764Z,4.40
2019-05-29T00:31:00.999Z,4.40
2019-05-29T00:33:28.228Z,4.40
2019-05-29T00:35:55.560Z,4.50
2019-05-29T00:38:22.787Z,4.50
2019-05-29T00:40:50.023Z,4.60
2019-05-29T00:43:17.616Z,4.60
2019-05-29T00:45:44.971Z,4.70
2019-05-29T00:48:12.284Z,4.70
2019-05-29T00:50:39.651Z,4.60
2019-05-29T00:53:08.044Z,4.60
2019-05-29T00:55:35.412Z,4.60
2019-05-29T00:58:02.773Z,4.50
2019-05-29T01:00:30.123Z,4.30
2019-05-29T01:02:57.468Z,4.10
2019-05-29T01:05:24.670Z,3.90
2019-05-29T01:07:52.047Z,3.70
2019-05-29T01:10:19.410Z,3.60
2019-05-29T01:12:46.749Z,3.40
2019-05-29T01:15:15.417Z,3.30
2019-05-29T01:17:42.845Z,3.20
2019-05-29T01:20:11.834Z,3.00
2019-05-29T01:22:39.204Z,3.00
2019-05-29T01:25:06.605Z,3.30
2019-05-29T01:27:33.854Z,3.50
2019-05-29T01:30:01.180Z,3.60
2019-05-29T01:32:28.510Z,3.70
2019-05-29T01:34:55.721Z,3.60
2019-05-29T01:37:22.940Z,3.50
2019-05-29T01:39:50.288Z,3.20
2019-05-29T01:42:17.505Z,2.90
2019-05-29T01:44:44.881Z,2.70
2019-05-29T01:47:12.195Z,2.70
2019-05-29T01:49:39.299Z,2.50
2019-05-29T01:52:06.554Z,2.60
2019-05-29T01:54:33.878Z,2.50
2019-05-29T01:57:01.212Z,2.40
2019-05-29T01:59:28.427Z,2.30
2019-05-29T02:01:55.790Z,2.40
2019-05-29T02:04:24.218Z,2.50
2019-05-29T02:06:51.631Z,2.40
2019-05-29T02:09:20.150Z,2.30
2019-05-29T02:11:47.636Z,2.20
2019-05-29T02:14:14.975Z,2.20
2019-05-29T02:16:42.218Z,2.20
2019-05-29T02:19:09.554Z,2.10
2019-05-29T02:21:37.086Z,2.10
2019-05-29T02:24:04.511Z,2.10
2019-05-29T02:26:31.833Z,2.20
2019-05-29T02:28:59.190Z,2.70
2019-05-29T02:31:28.698Z,2.90
2019-05-29T02:33:55.676Z,3.10
2019-05-29T02:36:24.571Z,3.20
2019-05-29T02:38:52.141Z,3.40
2019-05-29T02:41:21.164Z,3.40
2019-05-29T02:43:48.788Z,3.50
2019-05-29T02:46:16.133Z,3.60
2019-05-29T02:48:43.471Z,3.60
2019-05-29T02:51:12.248Z,3.70
2019-05-29T02:53:39.736Z,3.70
2019-05-29T02:56:07.052Z,3.80
2019-05-29T02:58:34.317Z,3.90
2019-05-29T03:01:01.718Z,3.90
2019-05-29T03:03:33.016Z,4.00
2019-05-29T03:05:58.368Z,4.10
2019-05-29T03:08:27.109Z,4.20
2019-05-29T03:10:54.844Z,4.30
2019-05-29T03:13:23.162Z,4.50
2019-05-29T03:16:08.489Z,4.80
2019-05-29T03:18:19.842Z,5.20
2019-05-29T03:20:47.177Z,5.60
2019-05-29T03:23:14.721Z,6.00
2019-05-29T03:25:42.036Z,6.30
2019-05-29T03:28:09.401Z,6.50
2019-05-29T03:30:44.159Z,6.90
2019-05-29T03:33:05.890Z,7.30
2019-05-29T03:35:39.871Z,7.70
2019-05-29T03:38:02.561Z,7.80
2019-05-29T03:40:31.627Z,8.00
2019-05-29T03:42:59.052Z,8.30
2019-05-29T03:45:26.739Z,8.70
2019-05-29T03:47:54.645Z,9.10
2019-05-29T03:50:21.994Z,9.40
2019-05-29T03:52:49.317Z,9.50
2019-05-29T03:55:16.660Z,9.40
2019-05-29T03:57:43.975Z,9.20
2019-05-29T04:00:11.415Z,9.20
2019-05-29T04:02:38.735Z,9.70
2019-05-29T04:05:07.592Z,9.80
2019-05-29T04:07:35.653Z,10.20
2019-05-29T04:10:04.064Z,10.30
2019-05-29T04:12:31.445Z,10.30
2019-05-29T04:14:58.816Z,10.70
2019-05-29T04:17:27.287Z,10.70
2019-05-29T04:19:54.888Z,10.70
2019-05-29T04:22:27.943Z,11.10
2019-05-29T04:24:57.398Z,11.30
2019-05-29T04:27:27.855Z,10.90
2019-05-29T04:29:58.773Z,10.70
2019-05-29T04:32:26.016Z,10.70
2019-05-29T04:34:53.397Z,11.20
2019-05-29T04:37:20.672Z,11.10
2019-05-29T04:39:48.057Z,10.90
2019-05-29T04:42:15.296Z,10.90
2019-05-29T04:44:42.657Z,11.00
2019-05-29T04:47:11.986Z,11.10
2019-05-29T04:49:39.882Z,11.10
2019-05-29T04:52:07.345Z,11.10
2019-05-29T04:54:37.661Z,11.00
2019-05-29T04:57:05.117Z,11.20
2019-05-29T04:59:33.033Z,11.70
2019-05-29T05:02:00.383Z,11.30
2019-05-29T05:04:29.012Z,11.30
2019-05-29T05:06:56.543Z,10.90
2019-05-29T05:09:23.783Z,11.00
2019-05-29T05:11:51.411Z,11.20
2019-05-29T05:14:18.656Z,11.60
2019-05-29T05:16:46.307Z,11.90
2019-05-29T05:19:16.766Z,12.10
2019-05-29T05:21:42.589Z,11.90
2019-05-29T05:24:09.907Z,11.00
2019-05-29T05:26:38.355Z,11.00
2019-05-29T05:29:05.868Z,11.50
2019-05-29T05:31:34.858Z,12.20
2019-05-29T05:34:02.329Z,11.50
2019-05-29T05:36:30.643Z,11.30
2019-05-29T05:38:57.920Z,10.50
2019-05-29T05:41:25.300Z,10.30
2019-05-29T05:43:52.613Z,10.00
2019-05-29T05:46:19.946Z,10.10
2019-05-29T05:48:47.179Z,10.40
2019-05-29T05:51:14.416Z,11.10
2019-05-29T05:53:41.887Z,11.60
2019-05-29T05:56:09.280Z,10.70
2019-05-29T05:58:37.731Z,10.40
2019-05-29T06:01:05.176Z,10.10
2019-05-29T06:03:33.827Z,9.80
2019-05-29T06:06:01.340Z,9.90
2019-05-29T06:08:28.687Z,10.10
2019-05-29T06:10:56.003Z,10.40
2019-05-29T06:13:23.285Z,10.90
2019-05-29T06:15:50.615Z,11.20
2019-05-29T06:18:21.514Z,11.20
2019-05-29T06:20:46.860Z,10.80
2019-05-29T06:23:14.183Z,11.00
2019-05-29T06:25:42.436Z,10.80
2019-05-29T06:28:10.662Z,11.10
2019-05-29T06:30:39.315Z,11.70
2019-05-29T06:33:07.424Z,11.50
2019-05-29T06:35:35.861Z,11.10
2019-05-29T06:38:03.388Z,11.10
2019-05-29T06:40:36.441Z,11.30
2019-05-29T06:43:06.541Z,11.60
2019-05-29T06:45:35.783Z,12.10
2019-05-29T06:48:05.405Z,11.70
2019-05-29T06:50:32.607Z,11.70
2019-05-29T06:52:59.833Z,10.90
2019-05-29T06:55:27.159Z,10.60
2019-05-29T06:57:54.467Z,10.60
2019-05-29T07:00:35.037Z,10.30
2019-05-29T07:02:51.224Z,10.30
2019-05-29T07:05:18.553Z,10.30
2019-05-29T07:07:46.559Z,10.20
2019-05-29T07:10:13.953Z,10.00
2019-05-29T07:12:42.393Z,10.10
2019-05-29T07:15:09.773Z,10.30
2019-05-29T07:17:38.411Z,10.40
2019-05-29T07:20:06.145Z,10.10
2019-05-29T07:22:33.500Z,9.90
2019-05-29T07:25:00.707Z,9.90
2019-05-29T07:27:28.423Z,9.90
2019-05-29T07:29:55.756Z,9.80
2019-05-29T07:32:23.125Z,9.80
2019-05-29T07:35:02.800Z,9.80
2019-05-29T07:37:19.585Z,10.00
2019-05-29T07:39:47.747Z,10.10
2019-05-29T07:42:15.149Z,10.00
2019-05-29T07:44:42.529Z,10.10
2019-05-29T07:47:10.086Z,10.20
2019-05-29T07:49:39.830Z,10.30
2019-05-29T07:52:06.572Z,10.40
2019-05-29T07:54:33.888Z,10.30
2019-05-29T07:57:01.230Z,10.30
2019-05-29T07:59:28.752Z,10.50
2019-05-29T08:01:56.069Z,10.60
2019-05-29T08:04:23.400Z,10.60
2019-05-29T08:06:54.320Z,10.50
2019-05-29T08:09:19.832Z,10.50
2019-05-29T08:11:47.707Z,10.60
2019-05-29T08:14:15.016Z,10.70
2019-05-29T08:16:43.914Z,10.40
2019-05-29T08:19:11.372Z,10.40
2019-05-29T08:21:38.613Z,10.50
2019-05-29T08:24:05.942Z,10.60
2019-05-29T08:26:33.267Z,10.80
2019-05-29T08:29:00.725Z,10.90
2019-05-29T08:31:28.072Z,10.80
2019-05-29T08:33:55.285Z,10.80
2019-05-29T08:36:22.636Z,11.10
2019-05-29T08:38:49.837Z,11.00
2019-05-29T08:41:17.051Z,11.10
2019-05-29T08:43:45.334Z,11.10
2019-05-29T08:46:13.516Z,10.90
2019-05-29T08:48:41.766Z,10.50
2019-05-29T08:51:09.311Z,10.40
2019-05-29T08:53:36.636Z,10.60
2019-05-29T08:56:04.115Z,10.80
2019-05-29T08:58:31.414Z,11.00
2019-05-29T09:00:58.784Z,11.00
2019-05-29T09:03:26.074Z,11.20
2019-05-29T09:06:06.839Z,11.20
2019-05-29T09:08:22.555Z,11.20
2019-05-29T09:10:51.270Z,11.10
2019-05-29T09:13:18.964Z,11.20
2019-05-29T09:15:46.205Z,11.20
2019-05-29T09:18:13.622Z,11.40
2019-05-29T09:21:00.998Z,11.70
2019-05-29T09:23:10.094Z,11.90
2019-05-29T09:25:37.469Z,12.10
2019-05-29T09:28:14.021Z,11.90
2019-05-29T09:30:41.260Z,11.40
2019-05-29T09:33:08.555Z,11.40
2019-05-29T09:35:35.877Z,11.70
2019-05-29T09:38:03.124Z,11.80
2019-05-29T09:40:30.436Z,11.70
2019-05-29T09:42:57.847Z,11.80
2019-05-29T09:45:25.579Z,11.70
2019-05-29T09:47:52.952Z,11.90
2019-05-29T09:50:22.758Z,12.20
2019-05-29T09:52:49.488Z,12.10
2019-05-29T09:55:17.187Z,11.70
2019-05-29T09:57:44.601Z,11.60
2019-05-29T10:00:12.125Z,11.50
2019-05-29T10:02:39.444Z,11.30
2019-05-29T10:05:07.515Z,11.40
2019-05-29T10:07:34.839Z,11.30
2019-05-29T10:10:03.663Z,11.00
2019-05-29T10:12:31.305Z,11.00
2019-05-29T10:14:59.590Z,11.30
2019-05-29T10:17:27.768Z,11.50
2019-05-29T10:19:55.903Z,11.60
2019-05-29T10:22:24.122Z,11.70
2019-05-29T10:24:51.386Z,11.90
2019-05-29T10:27:18.626Z,11.70
2019-05-29T10:29:48.847Z,11.70
2019-05-29T10:32:15.112Z,11.80
2019-05-29T10:34:42.477Z,11.90
2019-05-29T10:37:09.780Z,11.80
2019-05-29T10:39:37.095Z,11.90
2019-05-29T10:42:04.345Z,12.00
2019-05-29T10:44:31.549Z,12.00
2019-05-29T10:46:58.808Z,12.20
2019-05-29T10:49:26.129Z,12.00
2019-05-29T10:52:05.721Z,12.00
2019-05-29T10:54:22.665Z,11.70
2019-05-29T10:56:50.853Z,11.70
2019-05-29T10:59:18.323Z,11.90
2019-05-29T11:01:46.916Z,12.20
2019-05-29T11:04:14.407Z,12.10
2019-05-29T11:06:41.760Z,12.30
2019-05-29T11:09:09.089Z,12.70
2019-05-29T11:11:36.421Z,12.90
2019-05-29T11:14:03.824Z,12.90
2019-05-29T11:16:31.264Z,12.80
2019-05-29T11:18:58.487Z,12.70
2019-05-29T11:21:25.743Z,12.70
2019-05-29T11:23:53.872Z,12.80
2019-05-29T11:26:21.279Z,12.80
2019-05-29T11:28:48.598Z,12.70
2019-05-29T11:31:15.960Z,12.40
2019-05-29T11:33:43.212Z,12.40
2019-05-29T11:36:13.335Z,12.30
2019-05-29T11:38:39.657Z,12.20
2019-05-29T11:41:25.026Z,11.90
2019-05-29T11:43:36.173Z,11.80
2019-05-29T11:46:03.598Z,11.80
2019-05-29T11:48:30.824Z,12.00
2019-05-29T11:50:58.325Z,12.10
2019-05-29T11:53:25.683Z,12.20
2019-05-29T11:55:54.024Z,12.30
2019-05-29T11:58:31.277Z,12.40
2019-05-29T12:00:50.762Z,12.30
2019-05-29T12:03:18.015Z,12.10
2019-05-29T12:05:45.276Z,12.10
2019-05-29T12:08:12.503Z,12.20
2019-05-29T12:10:39.860Z,12.40
2019-05-29T12:13:07.215Z,12.70
2019-05-29T12:15:34.453Z,13.00
2019-05-29T12:18:19.994Z,13.20
2019-05-29T12:20:30.989Z,13.50
2019-05-29T12:23:19.804Z,13.60
2019-05-29T12:25:27.496Z,13.50
2019-05-29T12:27:55.300Z,13.30
2019-05-29T12:30:23.601Z,13.10
2019-05-29T12:32:50.919Z,13.00
2019-05-29T12:35:18.264Z,12.90
2019-05-29T12:37:45.571Z,12.60
2019-05-29T12:40:13.124Z,12.30
2019-05-29T12:42:44.608Z,12.10
2019-05-29T12:45:09.984Z,12.00
2019-05-29T12:47:37.271Z,12.40
2019-05-29T12:50:06.951Z,12.70
2019-05-29T12:52:34.188Z,13.10
2019-05-29T12:55:02.453Z,12.80
2019-05-29T12:57:29.902Z,12.50
2019-05-29T12:59:58.015Z,12.60
2019-05-29T13:02:25.384Z,12.60
2019-05-29T13:05:16.264Z,12.60
2019-05-29T13:07:21.768Z,12.80
2019-05-29T13:09:49.089Z,12.70
2019-05-29T13:12:16.408Z,12.90
2019-05-29T13:14:43.720Z,13.10
2019-05-29T13:17:11.094Z,13.30
2019-05-29T13:19:38.399Z,13.10
2019-05-29T13:22:06.484Z,12.70
2019-05-29T13:24:33.961Z,12.40
2019-05-29T13:27:01.842Z,12.30
2019-05-29T13:29:29.243Z,12.10
2019-05-29T13:31:57.997Z,11.90
2019-05-29T13:34:25.612Z,12.00
2019-05-29T13:36:52.993Z,12.10
2019-05-29T13:39:20.381Z,12.20
2019-05-29T13:41:47.614Z,12.50
2019-05-29T13:44:14.984Z,12.60
2019-05-29T13:46:42.292Z,12.70
2019-05-29T13:49:09.655Z,12.80
2019-05-29T13:51:36.959Z,12.80
2019-05-29T13:54:11.773Z,12.90
2019-05-29T13:56:33.434Z,12.90
2019-05-29T13:59:01.949Z,13.00
2019-05-29T14:01:29.516Z,13.10
2019-05-29T14:03:58.065Z,12.90
2019-05-29T14:06:25.589Z,12.80
2019-05-29T14:08:52.896Z,12.80
2019-05-29T14:11:20.240Z,12.80
2019-05-29T14:13:47.561Z,12.80
2019-05-29T14:16:14.905Z,12.80
2019-05-29T14:18:42.294Z,12.80
2019-05-29T14:21:09.590Z,12.80
2019-05-29T14:23:39.491Z,12.80
2019-05-29T14:26:06.449Z,12.90
2019-05-29T14:28:33.919Z,12.90
2019-05-29T14:31:01.840Z,12.60
2019-05-29T14:33:29.293Z,12.40
2019-05-29T14:35:56.612Z,12.40
2019-05-29T14:38:24.048Z,12.50
2019-05-29T14:40:51.281Z,12.70
2019-05-29T14:43:18.652Z,12.60
2019-05-29T14:45:45.863Z,12.60
2019-05-29T14:48:13.340Z,12.70
2019-05-29T14:50:40.722Z,12.70
2019-05-29T14:53:09.409Z,12.70
2019-05-29T14:55:37.179Z,12.50
2019-05-29T14:58:05.635Z,12.40
2019-05-29T15:00:33.124Z,12.40
2019-05-29T15:03:00.340Z,12.40
2019-05-29T15:05:27.593Z,12.30
2019-05-29T15:07:54.956Z,12.30
2019-05-29T15:10:27.245Z,12.30
2019-05-29T15:12:51.609Z,12.40
2019-05-29T15:15:19.252Z,12.40
2019-05-29T15:17:46.604Z,12.30
2019-05-29T15:20:16.882Z,12.20
2019-05-29T15:22:44.502Z,12.10
2019-05-29T15:25:21.017Z,12.20
2019-05-29T15:27:41.359Z,12.10
2019-05-29T15:30:11.320Z,12.10
2019-05-29T15:32:39.135Z,12.10
2019-05-29T15:35:12.758Z,12.10
2019-05-29T15:37:37.210Z,12.00
2019-05-29T15:40:06.537Z,11.90
2019-05-29T15:42:33.982Z,11.80
2019-05-29T15:45:01.333Z,11.80
2019-05-29T15:47:28.690Z,11.90
2019-05-29T15:49:56.007Z,12.00
2019-05-29T15:52:23.259Z,12.10
2019-05-29T15:54:50.580Z,12.00
2019-05-29T15:57:18.028Z,12.00
2019-05-29T15:59:45.352Z,12.00
2019-05-29T16:02:13.686Z,12.10
2019-05-29T16:04:41.250Z,12.10
2019-05-29T16:07:09.772Z,11.90
2019-05-29T16:09:37.198Z,11.90
2019-05-29T16:12:04.518Z,11.90
2019-05-29T16:14:31.742Z,11.90
2019-05-29T16:16:59.056Z,11.90
2019-05-29T16:19:26.412Z,11.80
2019-05-29T16:21:53.856Z,11.80
2019-05-29T16:24:21.222Z,11.90
2019-05-29T16:26:48.539Z,11.80
2019-05-29T16:29:17.513Z,11.80
2019-05-29T16:31:45.028Z,11.80
2019-05-29T16:34:12.354Z,11.80
2019-05-29T16:36:39.728Z,11.70
2019-05-29T16:39:07.359Z,11.70
2019-05-29T16:41:34.718Z,11.60
2019-05-29T16:44:01.882Z,11.60
2019-05-29T16:46:29.224Z,11.60
2019-05-29T16:48:56.574Z,11.60
2019-05-29T16:51:23.907Z,11.60
2019-05-29T16:53:51.245Z,11.50
2019-05-29T16:56:18.967Z,11.50
2019-05-29T16:58:46.422Z,11.60
2019-05-29T17:01:13.745Z,11.50
2019-05-29T17:03:41.084Z,11.40
2019-05-29T17:06:08.329Z,11.20
2019-05-29T17:08:35.659Z,11.20
2019-05-29T17:11:05.002Z,11.30
2019-05-29T17:13:32.341Z,11.50
2019-05-29T17:15:59.652Z,11.60
2019-05-29T17:18:26.974Z,11.70
2019-05-29T17:20:54.189Z,11.80
2019-05-29T17:23:22.818Z,12.00
2019-05-29T17:25:50.290Z,12.10
2019-05-29T17:28:22.393Z,12.10
2019-05-29T17:30:46.764Z,12.00
2019-05-29T17:33:15.093Z,12.10
2019-05-29T17:35:42.531Z,12.10
2019-05-29T17:38:09.863Z,11.90
2019-05-29T17:40:37.190Z,11.90
2019-05-29T17:43:04.563Z,11.90
2019-05-29T17:45:31.857Z,11.90
2019-05-29T17:47:59.196Z,11.90
2019-05-29T17:50:26.782Z,11.80
2019-05-29T17:52:54.167Z,11.60
2019-05-29T17:55:23.248Z,11.50
2019-05-29T17:57:50.664Z,11.40
2019-05-29T18:00:18.586Z,11.20
2019-05-29T18:02:52.045Z,11.10
2019-05-29T18:05:16.404Z,10.90
2019-05-29T18:07:43.847Z,10.70
2019-05-29T18:10:11.385Z,10.60
2019-05-29T18:12:38.596Z,10.40
2019-05-29T18:15:06.842Z,10.30
2019-05-29T18:17:34.144Z,10.10
2019-05-29T18:20:01.534Z,10.00
2019-05-29T18:22:28.768Z,10.00
2019-05-29T18:24:56.132Z,9.90
2019-05-29T18:27:23.913Z,9.80
2019-05-29T18:29:51.357Z,9.80
2019-05-29T18:32:18.704Z,9.80
2019-05-29T18:34:46.043Z,9.60
2019-05-29T18:37:13.386Z,9.50
2019-05-29T18:39:40.812Z,9.60
2019-05-29T18:42:08.147Z,9.60
2019-05-29T18:44:35.509Z,9.50
2019-05-29T18:47:02.745Z,9.50
2019-05-29T18:49:30.083Z,9.40
2019-05-29T18:52:00.280Z,9.30
2019-05-29T18:54:26.438Z,9.20
2019-05-29T18:57:13.822Z,9.10
2019-05-29T18:59:23.208Z,9.00
2019-05-29T19:01:50.613Z,9.00
2019-05-29T19:04:17.980Z,8.90
2019-05-29T19:06:45.219Z,8.80
2019-05-29T19:09:12.463Z,8.70
2019-05-29T19:11:39.704Z,8.60
2019-05-29T19:14:06.960Z,8.60
2019-05-29T19:16:34.391Z,8.50
2019-05-29T19:19:01.749Z,8.40
2019-05-29T19:21:30.246Z,8.10
2019-05-29T19:23:57.852Z,7.90
2019-05-29T19:26:25.185Z,7.80
2019-05-29T19:28:52.532Z,7.60
2019-05-29T19:31:19.776Z,7.50
2019-05-29T19:33:47.216Z,7.40
2019-05-29T19:36:14.472Z,7.30
2019-05-29T19:38:41.825Z,7.20
2019-05-29T19:41:09.160Z,7.00
2019-05-29T19:43:36.482Z,6.80
2019-05-29T19:46:03.993Z,6.70
2019-05-29T19:48:31.303Z,6.50
2019-05-29T19:50:58.549Z,6.40
2019-05-29T19:53:26.881Z,6.20
2019-05-29T19:55:55.003Z,6.10
2019-05-29T19:58:22.240Z,5.90
2019-05-29T20:00:49.476Z,5.90
2019-05-29T20:03:20.007Z,5.90
2019-05-29T20:05:45.731Z,5.90
2019-05-29T20:08:12.956Z,5.90
2019-05-29T20:10:40.296Z,5.90
2019-05-29T20:13:07.627Z,5.80
2019-05-29T20:15:36.007Z,5.60
2019-05-29T20:18:03.624Z,5.50
2019-05-29T20:20:30.867Z,5.30
2019-05-29T20:22:58.184Z,5.00
2019-05-29T20:25:25.466Z,4.80
2019-05-29T20:28:05.447Z,4.70
2019-05-29T20:30:22.012Z,4.70
2019-05-29T20:32:49.285Z,4.70
2019-05-29T20:35:16.703Z,4.70
2019-05-29T20:37:44.852Z,4.70
2019-05-29T20:40:12.417Z,4.50
2019-05-29T20:42:39.748Z,4.30
2019-05-29T20:45:07.498Z,4.10
2019-05-29T20:47:35.574Z,4.00
2019-05-29T20:50:03.572Z,3.90
2019-05-29T20:52:31.108Z,3.80
2019-05-29T20:54:58.860Z,3.70
2019-05-29T20:57:26.234Z,3.80
2019-05-29T20:59:53.576Z,3.70
2019-05-29T21:02:20.781Z,3.70
2019-05-29T21:04:48.134Z,3.60
2019-05-29T21:07:15.431Z,3.60
2019-05-29T21:09:43.322Z,3.50
2019-05-29T21:12:10.680Z,3.50
2019-05-29T21:14:38.016Z,3.40
2019-05-29T21:17:05.727Z,3.40
2019-05-29T21:19:34.018Z,3.30
2019-05-29T21:22:01.379Z,3.20
2019-05-29T21:24:28.725Z,3.10
2019-05-29T21:26:56.049Z,3.10
2019-05-29T21:29:23.422Z,3.10
2019-05-29T21:31:50.736Z,3.00
2019-05-29T21:34:18.064Z,2.90
2019-05-29T21:36:46.374Z,2.80
2019-05-29T21:39:13.810Z,2.70
2019-05-29T21:41:42.469Z,2.60
2019-05-29T21:44:09.995Z,2.60
2019-05-29T21:46:37.239Z,2.50
2019-05-29T21:49:04.582Z,2.60
2019-05-29T21:51:31.934Z,2.60
2019-05-29T21:53:59.344Z,2.60
2019-05-29T21:56:26.579Z,2.70
2019-05-29T21:59:03.035Z,2.60
2019-05-29T22:01:23.033Z,2.50
2019-05-29T22:03:50.280Z,2.30
2019-05-29T22:06:17.656Z,2.30
2019-05-29T22:08:45.047Z,2.30
2019-05-29T22:11:12.375Z,2.30
2019-05-29T22:13:39.716Z,2.20
2019-05-29T22:16:07.023Z,2.20
2019-05-29T22:18:34.354Z,2.20
2019-05-29T22:21:01.717Z,2.10
2019-05-29T22:23:29.312Z,2.00
2019-05-29T22:25:57.388Z,2.00
2019-05-29T22:28:24.834Z,1.90
2019-05-29T22:30:53.171Z,1.80
2019-05-29T22:33:20.719Z,1.80
2019-05-29T22:35:48.000Z,1.80
2019-05-29T22:38:15.264Z,1.70
2019-05-29T22:40:42.629Z,1.60
2019-05-29T22:43:09.919Z,1.60
2019-05-29T22:45:37.197Z,1.60
2019-05-29T22:48:04.583Z,1.50
2019-05-29T22:50:31.983Z,1.40
2019-05-29T22:52:59.960Z,1.30
2019-05-29T22:55:27.237Z,1.20
2019-05-29T22:57:55.830Z,1.20
2019-05-29T23:00:23.289Z,1.10
2019-05-29T23:02:51.837Z,1.00
2019-05-29T23:05:19.330Z,1.00
2019-05-29T23:07:46.484Z,1.00
2019-05-29T23:10:13.817Z,0.90
2019-05-29T23:12:41.170Z,0.90
2019-05-29T23:15:08.862Z,0.80
2019-05-29T23:17:36.250Z,0.80
2019-05-29T23:20:04.284Z,0.80
2019-05-29T23:22:31.660Z,0.80
2019-05-29T23:24:59.251Z,0.70
2019-05-29T23:27:26.351Z,0.70
2019-05-29T23:29:54.677Z,0.70
2019-05-29T23:32:22.123Z,0.70
2019-05-29T23:34:49.417Z,0.60
2019-05-29T23:37:16.739Z,0.60
2019-05-29T23:39:44.071Z,0.60
2019-05-29T23:42:11.276Z,0.60
2019-05-29T23:44:38.612Z,0.50
2019-05-29T23:47:06.029Z,0.50
2019-05-29T23:49:33.277Z,0.40
2019-05-29T23:52:02.646Z,0.40
2019-05-29T23:54:29.736Z,0.30
2019-05-29T23:56:57.922Z,0.30
2019-05-29T23:59:25.405Z,0.20
